Time;durP1;ratioP1;P1;durP2;ratioP2;P2;SDS_P1;SDS_P2;PMS_P1;PMS_P2;Temp;Humidity;BMP_temperature;BMP_pressure;BME280_temperature;BME280_humidity;BME280_pressure;Samples;Min_cycle;Max_cycle;Signal;HPM_P1;HPM_P2
2021/10/17 02:18:16;;;;;;;11.98;8.30;;;;;;;6.17;87.40;100276.06;1088421;46;20038;-75
2021/10/17 02:19:17;;;;;;;10.88;8.15;;;;;;;6.27;86.97;100278.91;1088252;54;20034;-75
2021/10/17 02:20:22;;;;;;;11.48;8.32;;;;;;;6.36;86.73;100268.44;1088184;54;20030;-76
2021/10/17 02:21:24;;;;;;;11.55;8.35;;;;;;;6.42;86.55;100277.78;1088155;54;20027;-75
2021/10/17 02:22:28;;;;;;;14.93;10.20;;;;;;;6.38;86.34;100269.19;1088166;54;20030;-76
2021/10/17 02:23:30;;;;;;;15.27;10.45;;;;;;;6.35;86.30;100272.06;1088126;54;20053;-75
2021/10/17 02:24:34;;;;;;;17.95;12.10;;;;;;;6.24;86.76;100269.34;1087852;54;20031;-77
2021/10/17 02:25:36;;;;;;;17.48;11.93;;;;;;;6.29;86.88;100272.53;1088828;39;20283;-75
2021/10/17 02:26:41;;;;;;;15.38;11.13;;;;;;;6.37;86.66;100262.19;1087641;54;20041;-76
2021/10/17 02:27:42;;;;;;;33.05;13.23;;;;;;;6.23;86.87;100267.66;1087573;54;20030;-75
2021/10/17 02:28:46;;;;;;;23.83;12.63;;;;;;;6.24;87.04;100266.69;1087462;54;20034;-76
2021/10/17 02:29:48;;;;;;;32.58;13.50;;;;;;;6.22;86.70;100263.31;1087351;54;20042;-76
2021/10/17 02:30:52;;;;;;;12.48;10.45;;;;;;;6.36;86.66;100270.28;1088185;39;20444;-76
2021/10/17 02:31:58;;;;;;;16.40;11.68;;;;;;;6.35;86.80;100266.75;1087728;54;20989;-76
2021/10/17 02:33:03;;;;;;;14.75;10.80;;;;;;;6.43;86.13;100265.34;1087892;54;20030;-76
2021/10/17 02:34:07;;;;;;;15.48;9.93;;;;;;;6.50;86.17;100269.25;1087694;54;20880;-76
2021/10/17 02:35:12;;;;;;;14.02;9.95;;;;;;;6.54;85.90;100263.59;1087709;54;20046;-75
2021/10/17 02:36:14;;;;;;;13.38;9.60;;;;;;;6.59;85.57;100263.28;1087908;54;20022;-75
2021/10/17 02:37:18;;;;;;;12.27;9.07;;;;;;;6.62;85.42;100268.34;1087961;54;20031;-75
2021/10/17 02:38:20;;;;;;;13.38;8.95;;;;;;;6.68;85.39;100267.03;1087939;54;20030;-76
2021/10/17 02:39:24;;;;;;;12.73;9.30;;;;;;;6.69;85.16;100263.41;1088289;39;20704;-76
2021/10/17 02:40:25;;;;;;;23.77;9.70;;;;;;;6.68;85.20;100267.03;1087898;54;20034;-76
2021/10/17 02:41:30;;;;;;;11.00;8.32;;;;;;;6.69;85.04;100263.41;1087695;54;20031;-76
2021/10/17 02:42:31;;;;;;;13.93;8.85;;;;;;;6.71;85.03;100262.34;1087733;54;20034;-76
2021/10/17 02:43:35;;;;;;;11.00;8.65;;;;;;;6.77;84.96;100262.84;1091790;39;20574;-76
2021/10/17 02:44:37;;;;;;;15.35;8.45;;;;;;;6.79;84.86;100264.44;1087685;54;20031;-76
2021/10/17 02:45:41;;;;;;;10.05;7.97;;;;;;;6.83;84.66;100254.41;1087837;54;20037;-76
2021/10/17 02:46:43;;;;;;;14.85;9.38;;;;;;;6.83;84.58;100260.59;1087735;54;20046;-75
2021/10/17 02:47:47;;;;;;;14.45;8.95;;;;;;;6.86;84.33;100259.50;1087814;54;20054;-76
2021/10/17 02:48:48;;;;;;;25.83;10.07;;;;;;;6.81;84.51;100259.84;1087920;54;20038;-76
2021/10/17 02:49:57;;;;;;;16.63;10.18;;;;;;;6.76;84.54;100259.31;1087903;54;20019;-77
2021/10/17 02:51:02;;;;;;;22.65;10.88;;;;;;;6.65;84.92;100260.16;1087859;54;20035;-76
2021/10/17 02:52:04;;;;;;;13.05;10.18;;;;;;;6.74;84.67;100260.41;1087773;54;21214;-76
2021/10/17 02:53:08;;;;;;;17.50;10.65;;;;;;;6.72;84.49;100261.38;1087772;54;20033;-76
2021/10/17 02:54:10;;;;;;;14.30;9.75;;;;;;;6.78;84.43;100256.56;1087811;54;20038;-76
2021/10/17 02:55:14;;;;;;;12.82;8.50;;;;;;;6.84;84.24;100261.41;1087829;54;20034;-76
2021/10/17 02:56:16;;;;;;;13.00;8.88;;;;;;;6.85;83.89;100258.63;1088796;39;20992;-77
2021/10/17 02:57:20;;;;;;;15.82;10.00;;;;;;;6.84;83.86;100261.41;1087681;54;20034;-76
2021/10/17 02:58:21;;;;;;;15.80;9.52;;;;;;;6.78;83.85;100260.06;1087746;54;20034;-76
2021/10/17 02:59:25;;;;;;;13.98;9.02;;;;;;;6.80;83.95;100258.16;1088779;39;20301;-77
2021/10/17 03:00:27;;;;;;;11.55;8.43;;;;;;;6.82;84.15;100258.03;1087779;54;22099;-77
2021/10/17 03:01:31;;;;;;;12.20;8.38;;;;;;;6.81;84.07;100267.81;1087930;54;20026;-76
2021/10/17 03:02:33;;;;;;;10.43;7.72;;;;;;;6.87;83.98;100262.03;1087828;54;20054;-76
2021/10/17 03:03:37;;;;;;;10.20;8.00;;;;;;;6.90;84.01;100252.97;1087713;54;20031;-76
2021/10/17 03:04:38;;;;;;;11.55;8.27;;;;;;;6.90;83.81;100255.63;1087811;54;20034;-75
2021/10/17 03:05:45;;;;;;;11.82;7.47;;;;;;;6.95;83.59;100250.84;1087684;54;20031;-75
2021/10/17 03:06:47;;;;;;;12.20;8.70;;;;;;;6.91;83.46;100260.00;1088016;46;20034;-76
2021/10/17 03:07:51;;;;;;;12.95;8.77;;;;;;;6.77;84.08;100257.53;1087778;54;20037;-75
2021/10/17 03:08:53;;;;;;;15.85;10.68;;;;;;;6.64;84.40;100260.28;1087819;54;20035;-75
2021/10/17 03:09:57;;;;;;;11.45;9.50;;;;;;;6.77;84.14;100252.22;1088674;46;20034;-75
2021/10/17 03:10:59;;;;;;;10.88;8.90;;;;;;;6.84;84.10;100256.09;1089000;46;20035;-75
2021/10/17 03:12:03;;;;;;;10.98;9.00;;;;;;;6.87;84.10;100253.22;1089766;39;20310;-76
2021/10/17 03:13:08;;;;;;;13.98;8.75;;;;;;;6.89;83.84;100255.75;1088186;54;20033;-77
2021/10/17 03:14:09;;;;;;;11.70;8.27;;;;;;;6.93;83.79;100252.75;1088745;46;20030;-76
2021/10/17 03:15:14;;;;;;;10.05;7.93;;;;;;;6.98;83.39;100255.94;1088059;54;20143;-76
2021/10/17 03:16:16;;;;;;;9.27;7.75;;;;;;;7.01;83.25;100255.66;1090128;46;20034;-75
2021/10/17 03:17:29;;;;;;;11.45;8.05;;;;;;;7.02;83.26;100260.03;1088062;54;20025;-77
2021/10/17 03:18:31;;;;;;;10.38;7.18;;;;;;;7.06;83.24;100251.84;1087948;54;20026;-76
2021/10/17 03:19:35;;;;;;;11.20;7.82;;;;;;;7.06;83.00;100249.16;1087945;54;20090;-77
2021/10/17 03:20:37;;;;;;;11.27;7.72;;;;;;;7.09;83.28;100252.44;1087681;54;20045;-76
2021/10/17 03:21:44;;;;;;;18.30;8.13;;;;;;;7.08;82.92;100255.22;1087800;54;20077;-77
2021/10/17 03:22:45;;;;;;;10.18;7.53;;;;;;;7.08;83.39;100248.09;1087846;54;20057;-76
2021/10/17 03:23:49;;;;;;;18.23;9.45;;;;;;;7.05;83.47;100255.44;1087827;54;20030;-75
2021/10/17 03:24:51;;;;;;;13.25;8.75;;;;;;;7.03;83.42;100251.09;1088128;54;20019;-76
2021/10/17 03:25:55;;;;;;;14.65;8.70;;;;;;;7.05;83.15;100252.78;1088081;54;20038;-76
2021/10/17 03:26:57;;;;;;;11.48;9.00;;;;;;;7.06;83.47;100255.31;1087844;54;20045;-76
2021/10/17 03:28:01;;;;;;;11.70;9.65;;;;;;;7.01;83.32;100246.88;1088018;54;20030;-77
2021/10/17 03:29:02;;;;;;;23.30;10.75;;;;;;;6.96;83.75;100254.31;1091792;46;20030;-76
2021/10/17 03:30:09;;;;;;;12.98;10.75;;;;;;;6.98;83.50;100253.28;1088193;46;20026;-76
2021/10/17 03:31:11;;;;;;;12.20;9.00;;;;;;;7.01;83.48;100249.53;1089368;46;20038;-76
2021/10/17 03:32:16;;;;;;;28.00;11.35;;;;;;;6.98;83.67;100255.94;1088057;46;20031;-76
2021/10/17 03:33:18;;;;;;;23.45;9.48;;;;;;;6.96;83.60;100255.19;1088066;47;20031;-76
2021/10/17 03:34:22;;;;;;;12.88;8.98;;;;;;;6.99;83.58;100257.59;1087943;54;20037;-75
2021/10/17 03:35:23;;;;;;;16.45;8.65;;;;;;;7.03;83.34;100255.56;1087968;54;20035;-76
2021/10/17 03:36:28;;;;;;;10.50;8.13;;;;;;;7.03;83.23;100256.41;1088163;54;20034;-76
2021/10/17 03:37:33;;;;;;;11.27;8.30;;;;;;;7.06;83.69;100259.81;1087657;54;20038;-76
2021/10/17 03:38:38;;;;;;;10.45;8.50;;;;;;;7.05;83.56;100253.63;1087779;54;20030;-77
2021/10/17 03:39:39;;;;;;;12.75;9.52;;;;;;;7.03;83.51;100253.75;1087798;54;20030;-75
2021/10/17 03:40:43;;;;;;;16.08;11.70;;;;;;;7.05;83.75;100253.63;1087774;54;20057;-76
2021/10/17 03:41:45;;;;;;;19.63;12.27;;;;;;;7.05;83.60;100258.09;1087767;54;20034;-76
2021/10/17 03:42:49;;;;;;;13.50;10.95;;;;;;;7.07;83.74;100251.69;1088622;39;20669;-76
2021/10/17 03:43:50;;;;;;;16.08;12.23;;;;;;;7.08;83.45;100258.72;1087663;54;20737;-75
2021/10/17 03:44:55;;;;;;;12.70;10.20;;;;;;;7.12;83.57;100256.66;1087732;54;20053;-77
2021/10/17 03:45:56;;;;;;;13.68;9.15;;;;;;;7.12;83.35;100257.53;1087758;54;20035;-75
2021/10/17 03:47:00;;;;;;;15.20;10.93;;;;;;;7.11;83.60;100255.84;1087640;54;20030;-76
2021/10/17 03:48:02;;;;;;;11.63;9.45;;;;;;;7.10;83.68;100256.78;1089101;39;20732;-76
2021/10/17 03:49:06;;;;;;;10.90;8.77;;;;;;;7.13;83.59;100259.19;1087608;54;20030;-75
2021/10/17 03:50:09;;;;;;;12.35;9.50;;;;;;;7.16;83.55;100256.31;1087770;54;20053;-76
2021/10/17 03:51:13;;;;;;;11.55;8.57;;;;;;;7.12;83.43;100248.69;1087755;54;20089;-76
2021/10/17 03:52:14;;;;;;;10.90;8.15;;;;;;;7.13;83.71;100261.03;1087693;54;20027;-76
2021/10/17 03:53:21;;;;;;;13.60;9.52;;;;;;;7.08;83.46;100248.09;1087694;54;20054;-75
2021/10/17 03:54:23;;;;;;;13.90;10.07;;;;;;;7.04;83.36;100254.59;1087642;54;20818;-76
2021/10/17 03:55:27;;;;;;;12.98;9.23;;;;;;;7.01;83.62;100255.66;1087638;54;20035;-76
2021/10/17 03:56:28;;;;;;;10.90;8.82;;;;;;;7.08;83.40;100252.56;1087566;54;20039;-75
2021/10/17 03:57:32;;;;;;;10.02;7.63;;;;;;;7.12;83.51;100254.00;1087664;54;20030;-76
2021/10/17 03:58:34;;;;;;;10.43;8.13;;;;;;;7.14;83.21;100249.44;1087755;54;20713;-77
2021/10/17 03:59:38;;;;;;;11.85;7.93;;;;;;;7.13;83.32;100247.72;1087715;54;20034;-76
2021/10/17 04:00:40;;;;;;;15.68;9.30;;;;;;;7.09;83.42;100259.56;1087657;54;20030;-76
2021/10/17 04:01:44;;;;;;;16.27;9.45;;;;;;;7.10;83.18;100245.31;1087766;54;20034;-76
2021/10/17 04:02:48;;;;;;;11.55;8.70;;;;;;;7.14;83.55;100250.25;1087680;54;20773;-76
2021/10/17 04:03:50;;;;;;;13.80;8.95;;;;;;;7.13;83.28;100245.06;1087713;54;20035;-76
2021/10/17 04:04:54;;;;;;;10.70;7.85;;;;;;;7.17;83.16;100254.53;1087701;54;20030;-76
2021/10/17 04:05:55;;;;;;;20.13;9.98;;;;;;;7.13;83.29;100250.38;1088723;39;20609;-76
2021/10/17 04:06:59;;;;;;;16.15;8.88;;;;;;;7.14;83.26;100252.09;1087674;54;20034;-77
2021/10/17 04:08:02;;;;;;;13.27;9.45;;;;;;;7.08;83.15;100256.06;1087673;54;20037;-76
2021/10/17 04:09:09;;;;;;;17.23;9.25;;;;;;;7.09;83.20;100252.44;1087765;54;20038;-76
2021/10/17 04:10:13;;;;;;;11.38;8.35;;;;;;;7.03;83.47;100251.09;1087721;54;20034;-75
2021/10/17 04:11:15;;;;;;;10.80;8.30;;;;;;;7.11;83.21;100258.50;1087657;54;20041;-75
2021/10/17 04:12:19;;;;;;;14.02;8.63;;;;;;;7.13;83.40;100250.38;1087591;54;20078;-75
2021/10/17 04:13:20;;;;;;;11.45;7.82;;;;;;;7.11;83.00;100252.31;1088424;39;20237;-75
2021/10/17 04:14:24;;;;;;;12.05;9.40;;;;;;;7.10;83.46;100255.94;1087665;54;20036;-76
2021/10/17 04:15:26;;;;;;;15.00;9.05;;;;;;;7.08;83.52;100253.41;1087704;54;20034;-75
2021/10/17 04:16:30;;;;;;;11.38;8.32;;;;;;;7.09;83.38;100251.56;1087623;54;20086;-76
2021/10/17 04:17:31;;;;;;;21.75;10.75;;;;;;;6.95;83.63;100248.19;1087672;54;20038;-76
2021/10/17 04:18:36;;;;;;;18.52;10.55;;;;;;;6.93;83.96;100251.91;1087694;54;20038;-76
2021/10/17 04:19:37;;;;;;;25.13;11.50;;;;;;;6.77;84.37;100257.53;1087698;54;20046;-76
2021/10/17 04:20:41;;;;;;;23.13;12.50;;;;;;;6.62;84.77;100251.56;1087734;54;20030;-75
2021/10/17 04:21:43;;;;;;;25.23;12.27;;;;;;;6.68;85.00;100249.28;1087656;54;20067;-76
2021/10/17 04:22:47;;;;;;;22.00;12.60;;;;;;;6.55;85.11;100252.03;1087693;54;20074;-75
2021/10/17 04:23:48;;;;;;;25.92;12.57;;;;;;;6.51;85.71;100253.19;1088233;46;20034;-76
2021/10/17 04:24:55;;;;;;;18.92;11.45;;;;;;;6.56;85.42;100251.03;1087627;54;20041;-76
2021/10/17 04:25:57;;;;;;;14.25;11.23;;;;;;;6.68;84.97;100257.28;1087669;54;20037;-75
2021/10/17 04:27:02;;;;;;;12.55;9.68;;;;;;;6.82;84.82;100253.56;1087653;54;20034;-76
2021/10/17 04:28:04;;;;;;;13.13;9.88;;;;;;;6.85;84.63;100263.13;1088338;39;20578;-75
2021/10/17 04:29:09;;;;;;;15.68;9.73;;;;;;;6.82;84.50;100247.41;1087630;54;20031;-76
2021/10/17 04:30:11;;;;;;;15.18;10.10;;;;;;;6.85;84.44;100257.81;1087719;54;20041;-76
2021/10/17 04:31:16;;;;;;;16.92;10.55;;;;;;;6.86;84.38;100254.19;1087662;54;20848;-76
2021/10/17 04:32:17;;;;;;;12.77;9.43;;;;;;;6.93;84.13;100251.91;1087583;54;20050;-77
2021/10/17 04:33:21;;;;;;;13.80;9.07;;;;;;;7.01;83.94;100252.19;1087637;54;20130;-76
2021/10/17 04:34:23;;;;;;;12.70;10.15;;;;;;;7.01;83.94;100249.53;1087696;54;20057;-76
2021/10/17 04:35:27;;;;;;;19.23;10.18;;;;;;;6.98;83.61;100252.41;1087654;54;20035;-76
2021/10/17 04:36:29;;;;;;;17.63;9.63;;;;;;;6.96;83.82;100252.53;1087737;54;20034;-74
2021/10/17 04:37:41;;;;;;;12.07;9.30;;;;;;;6.98;83.78;100250.63;1087504;54;20057;-76
2021/10/17 04:38:53;;;;;;;14.43;8.90;;;;;;;6.97;83.46;100248.91;1087554;54;20061;-76
2021/10/17 04:40:01;;;;;;;17.85;9.88;;;;;;;6.95;83.57;100242.84;1087458;54;20031;-75
2021/10/17 04:41:06;;;;;;;12.70;9.02;;;;;;;6.98;83.62;100245.28;1087518;54;20070;-75
2021/10/17 04:42:11;;;;;;;11.23;8.55;;;;;;;6.99;83.49;100243.47;1087650;54;20726;-76
2021/10/17 04:43:12;;;;;;;19.73;9.50;;;;;;;6.96;83.99;100244.56;1087652;54;20030;-77
2021/10/17 04:44:18;;;;;;;12.68;8.77;;;;;;;7.01;83.89;100246.88;1087797;54;20038;-76
2021/10/17 04:45:19;;;;;;;17.42;8.68;;;;;;;7.01;83.62;100246.88;1087825;54;20034;-76
2021/10/17 04:46:23;;;;;;;20.80;10.18;;;;;;;6.99;83.80;100238.97;1088041;54;20034;-76
2021/10/17 04:47:28;;;;;;;19.38;9.82;;;;;;;6.97;83.95;100246.25;1087960;54;20031;-76
2021/10/17 04:48:34;;;;;;;22.98;11.00;;;;;;;6.93;84.13;100251.91;1087939;54;20054;-75
2021/10/17 04:49:35;;;;;;;33.78;11.88;;;;;;;6.94;83.99;100246.47;1088041;54;20065;-76
2021/10/17 04:50:40;;;;;;;16.77;9.65;;;;;;;6.95;83.96;100242.84;1087859;54;20030;-76
2021/10/17 04:51:42;;;;;;;16.27;8.85;;;;;;;6.97;83.82;100240.94;1088001;54;20018;-76
2021/10/17 04:52:47;;;;;;;12.20;8.73;;;;;;;7.01;84.08;100237.06;1087899;54;20035;-76
2021/10/17 04:53:48;;;;;;;13.40;8.23;;;;;;;7.05;83.84;100248.31;1087962;54;20054;-76
2021/10/17 04:54:53;;;;;;;9.50;7.35;;;;;;;7.10;84.00;100235.53;1088047;54;20014;-76
2021/10/17 04:55:58;;;;;;;13.85;8.80;;;;;;;7.10;84.12;100239.97;1087858;54;20034;-76
2021/10/17 04:57:03;;;;;;;19.67;8.93;;;;;;;7.08;83.75;100241.94;1090687;47;20035;-76
2021/10/17 04:58:05;;;;;;;12.43;9.23;;;;;;;7.13;83.72;100242.41;1088012;54;20027;-76
2021/10/17 04:59:09;;;;;;;11.18;8.23;;;;;;;7.15;83.78;100235.19;1088019;54;20725;-76
2021/10/17 05:00:12;;;;;;;15.82;8.68;;;;;;;7.17;83.89;100236.75;1088049;54;20611;-76
2021/10/17 05:01:16;;;;;;;15.88;8.70;;;;;;;7.18;83.62;100238.44;1087927;54;20038;-76
2021/10/17 05:02:19;;;;;;;12.23;8.55;;;;;;;7.20;83.52;100234.81;1087962;54;20733;-77
2021/10/17 05:03:24;;;;;;;16.08;8.90;;;;;;;7.18;83.82;100238.44;1087971;54;20804;-76
2021/10/17 05:04:26;;;;;;;24.92;8.90;;;;;;;7.15;83.77;100232.50;1090867;47;20065;-76
2021/10/17 05:05:30;;;;;;;10.50;8.05;;;;;;;7.19;83.62;100244.59;1095628;39;20536;-76
2021/10/17 05:06:33;;;;;;;11.35;8.60;;;;;;;7.22;83.83;100236.38;1087987;54;20033;-76
2021/10/17 05:07:38;;;;;;;11.88;9.13;;;;;;;7.23;83.57;100240.75;1087969;54;20689;-75
2021/10/17 05:08:40;;;;;;;13.18;9.75;;;;;;;7.21;83.56;100237.34;1088377;54;20030;-76
2021/10/17 05:09:44;;;;;;;11.93;8.48;;;;;;;7.24;83.67;100242.44;1093378;39;20503;-76
2021/10/17 05:10:46;;;;;;;13.85;9.10;;;;;;;7.21;83.57;100245.31;1088374;54;20038;-77
2021/10/17 05:11:53;;;;;;;13.75;10.93;;;;;;;7.11;84.11;100241.69;1088279;54;20078;-76
2021/10/17 05:12:55;;;;;;;15.23;10.77;;;;;;;7.08;84.52;100250.75;1088163;54;20014;-76
2021/10/17 05:14:00;;;;;;;16.88;11.57;;;;;;;7.01;84.40;100247.69;1088390;54;20014;-76
2021/10/17 05:15:01;;;;;;;17.17;11.40;;;;;;;6.99;84.66;100249.63;1088322;54;20748;-76
2021/10/17 05:16:06;;;;;;;17.42;11.70;;;;;;;6.95;84.63;100242.84;1089267;46;20126;-76
2021/10/17 05:17:07;;;;;;;17.65;12.18;;;;;;;6.87;84.77;100246.09;1088265;54;20344;-75
2021/10/17 05:18:12;;;;;;;14.73;11.77;;;;;;;6.92;84.74;100248.41;1088234;54;20018;-76
2021/10/17 05:19:14;;;;;;;16.52;11.77;;;;;;;6.90;84.65;100252.97;1087881;54;20030;-76
2021/10/17 05:20:19;;;;;;;16.17;12.15;;;;;;;6.87;85.07;100253.22;1088306;54;20734;-76
2021/10/17 05:21:21;;;;;;;14.82;11.63;;;;;;;6.88;84.90;100252.28;1088361;54;20022;-76
2021/10/17 05:22:25;;;;;;;16.10;12.27;;;;;;;6.83;85.01;100255.28;1088320;54;20082;-76
2021/10/17 05:23:27;;;;;;;17.23;12.57;;;;;;;6.86;85.05;100254.19;1088283;54;20678;-75
2021/10/17 05:24:31;;;;;;;15.68;12.02;;;;;;;6.95;84.57;100245.50;1088227;54;20034;-75
2021/10/17 05:25:35;;;;;;;13.95;10.93;;;;;;;7.06;84.46;100247.34;1090191;39;20646;-76
2021/10/17 05:26:40;;;;;;;14.88;9.93;;;;;;;7.12;84.14;100251.34;1088339;54;20042;-76
2021/10/17 05:27:44;;;;;;;13.10;9.98;;;;;;;7.19;84.11;100255.22;1088966;39;20690;-76
2021/10/17 05:28:49;;;;;;;15.02;9.95;;;;;;;7.18;83.66;100250.88;1088386;46;20602;-76
2021/10/17 05:29:51;;;;;;;12.93;9.45;;;;;;;7.23;83.61;100251.38;1088162;54;20034;-76
2021/10/17 05:30:55;;;;;;;12.55;8.98;;;;;;;7.26;83.33;100248.50;1090328;39;20621;-77
2021/10/17 05:31:56;;;;;;;11.73;8.52;;;;;;;7.26;83.46;100243.19;1091705;46;20034;-76
2021/10/17 05:33:02;;;;;;;11.05;8.10;;;;;;;7.29;83.45;100247.41;1088309;54;20036;-76
2021/10/17 05:34:04;;;;;;;12.10;8.52;;;;;;;7.34;83.41;100254.06;1088377;54;20043;-75
2021/10/17 05:35:09;;;;;;;10.32;7.55;;;;;;;7.38;83.08;100254.66;1089894;46;20022;-76
2021/10/17 05:36:11;;;;;;;10.75;7.95;;;;;;;7.38;83.14;100249.34;1088298;54;20058;-77
2021/10/17 05:37:16;;;;;;;13.35;9.80;;;;;;;7.39;83.20;100255.50;1088301;54;20026;-76
2021/10/17 05:38:17;;;;;;;12.80;9.77;;;;;;;7.37;83.15;100252.13;1088382;54;20038;-76
2021/10/17 05:39:21;;;;;;;11.63;9.02;;;;;;;7.38;83.08;100251.16;1088396;54;20030;-76
2021/10/17 05:40:23;;;;;;;11.77;9.18;;;;;;;7.40;82.96;100250.09;1088422;54;20026;-76
2021/10/17 05:41:27;;;;;;;12.00;8.85;;;;;;;7.43;83.05;100256.97;1088216;54;20038;-78
2021/10/17 05:42:30;;;;;;;10.85;8.18;;;;;;;7.44;82.93;100250.69;1088351;54;20030;-75
2021/10/17 05:43:37;;;;;;;10.95;8.48;;;;;;;7.47;82.93;100251.28;1088426;54;20015;-76
2021/10/17 05:44:39;;;;;;;11.80;8.88;;;;;;;7.44;82.68;100248.03;1088326;54;20083;-76
2021/10/17 05:45:43;;;;;;;13.48;10.45;;;;;;;7.43;82.97;100252.47;1088290;54;20019;-76
2021/10/17 05:46:44;;;;;;;20.38;11.88;;;;;;;7.38;82.71;100253.81;1088245;54;20046;-75
2021/10/17 05:47:48;;;;;;;16.02;11.45;;;;;;;7.34;82.96;100250.53;1088146;54;20175;-77
2021/10/17 05:48:50;;;;;;;14.32;10.82;;;;;;;7.29;82.97;100256.22;1088319;54;20015;-75
2021/10/17 05:49:56;;;;;;;13.02;10.13;;;;;;;7.33;82.91;100255.03;1088845;39;20625;-76
2021/10/17 05:50:59;;;;;;;12.05;9.77;;;;;;;7.33;83.12;100254.16;1088270;54;20034;-76
2021/10/17 05:52:05;;;;;;;16.63;10.65;;;;;;;7.29;82.86;100250.91;1088093;54;20686;-76
2021/10/17 05:53:09;;;;;;;34.55;13.07;;;;;;;7.16;82.79;100258.16;1088257;54;20034;-76
2021/10/17 05:54:16;;;;;;;12.75;10.15;;;;;;;7.15;83.16;100261.75;1088342;54;20030;-77
2021/10/17 05:55:21;;;;;;;14.88;10.18;;;;;;;7.14;83.27;100263.56;1088336;54;20030;-76
2021/10/17 05:56:24;;;;;;;13.43;9.40;;;;;;;7.14;83.39;100260.06;1088277;54;20049;-75
2021/10/17 05:57:29;;;;;;;13.73;8.45;;;;;;;7.19;83.31;100263.19;1088125;54;20030;-76
2021/10/17 05:58:32;;;;;;;14.15;9.85;;;;;;;7.20;83.48;100261.41;1088283;54;20026;-75
2021/10/17 05:59:41;;;;;;;14.85;10.88;;;;;;;7.12;83.88;100269.97;1088240;54;20030;-76
2021/10/17 06:00:46;;;;;;;34.67;13.48;;;;;;;6.96;83.09;100264.97;1089316;46;20031;-76
2021/10/17 06:01:48;;;;;;;24.38;13.32;;;;;;;6.87;83.94;100263.84;1088207;54;20038;-75
2021/10/17 06:02:52;;;;;;;21.52;12.90;;;;;;;6.77;84.05;100270.81;1088233;54;20098;-75
2021/10/17 06:03:55;;;;;;;30.13;14.15;;;;;;;6.70;84.28;100271.28;1092889;39;20229;-76
2021/10/17 06:05:00;;;;;;;18.25;11.55;;;;;;;6.68;84.60;100270.56;1089496;39;20585;-75
2021/10/17 06:06:05;;;;;;;15.70;10.75;;;;;;;6.74;84.53;100273.69;1088413;46;20030;-75
2021/10/17 06:07:10;;;;;;;20.42;12.05;;;;;;;6.74;84.82;100276.34;1088182;54;20030;-75
2021/10/17 06:08:14;;;;;;;17.38;11.05;;;;;;;6.74;84.87;100276.34;1088031;54;20035;-76
2021/10/17 06:09:19;;;;;;;14.75;10.38;;;;;;;6.76;84.58;100282.41;1090440;39;20232;-76
2021/10/17 06:10:22;;;;;;;14.70;9.15;;;;;;;6.82;84.74;100277.50;1088224;54;20035;-77
2021/10/17 06:11:29;;;;;;;18.77;10.48;;;;;;;6.78;84.66;100283.16;1088216;54;20034;-75
2021/10/17 06:12:34;;;;;;;17.40;10.85;;;;;;;6.75;84.52;100278.06;1087989;54;20030;-75
2021/10/17 06:13:35;;;;;;;15.95;10.20;;;;;;;6.78;84.46;100285.81;1088176;54;20026;-76
2021/10/17 06:14:42;;;;;;;15.82;11.55;;;;;;;6.77;84.77;100281.44;1088264;54;20082;-75
2021/10/17 06:15:44;;;;;;;23.25;12.80;;;;;;;6.70;84.58;100284.56;1088132;54;20040;-75
2021/10/17 06:16:48;;;;;;;21.08;11.93;;;;;;;6.67;84.69;100281.28;1088214;54;20042;-75
2021/10/17 06:17:53;;;;;;;21.10;12.55;;;;;;;6.63;85.25;100291.28;1088171;54;20038;-75
2021/10/17 06:18:55;;;;;;;27.42;12.13;;;;;;;6.62;84.90;100289.59;1088270;39;20657;-76
2021/10/17 06:19:59;;;;;;;20.35;12.43;;;;;;;6.59;85.09;100292.50;1087789;54;20030;-75
2021/10/17 06:21:02;;;;;;;23.15;11.82;;;;;;;6.57;85.18;100294.41;1089788;39;20334;-76
2021/10/17 06:22:08;;;;;;;17.20;11.73;;;;;;;6.56;85.13;100301.50;1088192;54;20034;-75
2021/10/17 06:23:13;;;;;;;39.30;13.23;;;;;;;6.52;85.41;100296.53;1088160;54;21041;-75
2021/10/17 06:24:17;;;;;;;21.27;11.55;;;;;;;6.54;85.39;100303.44;1088281;54;20057;-75
2021/10/17 06:25:23;;;;;;;20.17;11.73;;;;;;;6.52;85.26;100304.50;1088254;54;20018;-74
2021/10/17 06:26:25;;;;;;;25.85;13.63;;;;;;;6.44;85.55;100297.13;1089488;46;20034;-75
2021/10/17 06:27:30;;;;;;;22.45;12.13;;;;;;;6.44;85.78;100301.56;1088155;54;20086;-77
2021/10/17 06:28:32;;;;;;;15.52;11.23;;;;;;;6.47;85.45;100307.50;1090394;46;20072;-75
2021/10/17 06:29:38;;;;;;;16.88;10.77;;;;;;;6.53;85.56;100308.84;1088282;54;20042;-75
2021/10/17 06:30:44;;;;;;;15.73;10.50;;;;;;;6.54;85.44;100314.06;1088253;54;20051;-75
2021/10/17 06:31:49;;;;;;;11.88;9.05;;;;;;;6.62;85.39;100316.16;1090133;46;20057;-75
2021/10/17 06:32:51;;;;;;;12.68;8.82;;;;;;;6.67;85.28;100311.38;1088221;54;20050;-75
2021/10/17 06:33:56;;;;;;;10.93;8.25;;;;;;;6.76;84.99;100312.47;1089517;46;20030;-76
2021/10/17 06:34:59;;;;;;;13.75;7.72;;;;;;;6.81;84.96;100318.31;1088286;54;20043;-75
2021/10/17 06:36:03;;;;;;;21.17;8.98;;;;;;;6.77;84.63;100313.34;1089277;46;20038;-75
2021/10/17 06:37:05;;;;;;;11.25;8.25;;;;;;;6.82;84.87;100316.50;1088205;54;20034;-76
2021/10/17 06:38:10;;;;;;;11.43;8.40;;;;;;;6.85;84.41;100317.09;1088174;54;20014;-75
2021/10/17 06:39:13;;;;;;;12.05;8.82;;;;;;;6.89;84.13;100315.09;1088141;54;20361;-74
2021/10/17 06:40:20;;;;;;;15.55;9.55;;;;;;;6.89;84.18;100327.53;1088215;54;20041;-77
2021/10/17 06:41:22;;;;;;;15.65;10.07;;;;;;;6.90;84.37;100324.75;1088967;39;21244;-75
2021/10/17 06:42:27;;;;;;;12.38;9.30;;;;;;;6.91;83.89;100315.81;1088107;54;20038;-75
2021/10/17 06:43:32;;;;;;;12.50;9.07;;;;;;;6.94;84.00;100322.72;1090866;46;20039;-76
2021/10/17 06:44:34;;;;;;;11.60;7.82;;;;;;;6.93;83.92;100321.84;1088214;54;20058;-75
2021/10/17 06:45:39;;;;;;;11.98;8.45;;;;;;;6.93;83.92;100318.38;1092591;46;20015;-75
2021/10/17 06:46:43;;;;;;;15.07;10.02;;;;;;;6.90;83.79;100322.06;1088162;54;20057;-75
2021/10/17 06:47:48;;;;;;;20.85;10.98;;;;;;;6.80;83.39;100324.59;1089090;39;20652;-75
2021/10/17 06:48:51;;;;;;;15.20;10.02;;;;;;;6.82;84.22;100330.66;1089566;46;20034;-76
2021/10/17 06:49:58;;;;;;;12.75;9.10;;;;;;;6.83;83.88;100334.13;1088279;39;20681;-77
2021/10/17 06:51:01;;;;;;;13.55;9.23;;;;;;;6.88;83.87;100334.66;1088187;54;20596;-75
2021/10/17 06:52:07;;;;;;;12.05;9.30;;;;;;;6.88;83.78;100326.69;1088064;54;20034;-76
2021/10/17 06:53:10;;;;;;;16.35;10.23;;;;;;;6.88;83.84;100326.69;1088836;39;20560;-76
2021/10/17 06:54:15;;;;;;;19.00;10.32;;;;;;;6.84;83.73;100326.06;1087997;54;20718;-76
2021/10/17 06:55:17;;;;;;;14.25;10.52;;;;;;;6.85;84.00;100333.06;1088168;54;20046;-76
2021/10/17 06:56:23;;;;;;;15.57;11.20;;;;;;;6.85;83.98;100332.22;1088220;54;20041;-75
2021/10/17 06:57:25;;;;;;;17.70;11.70;;;;;;;6.77;83.86;100330.13;1088056;54;20090;-75
2021/10/17 06:58:32;;;;;;;18.48;10.55;;;;;;;6.77;83.82;100327.47;1088061;54;20061;-76
2021/10/17 06:59:37;;;;;;;14.82;10.48;;;;;;;6.72;84.11;100332.28;1091334;39;20669;-75
2021/10/17 07:00:41;;;;;;;22.80;11.93;;;;;;;6.64;84.21;100338.16;1088399;46;20039;-76
2021/10/17 07:01:49;;;;;;;15.35;11.43;;;;;;;6.68;84.16;100336.09;1088107;54;20030;-76
2021/10/17 07:02:50;;;;;;;14.57;9.80;;;;;;;6.64;84.21;100338.16;1088090;54;20030;-76
2021/10/17 07:03:54;;;;;;;18.52;11.73;;;;;;;6.61;84.31;100348.16;1087979;54;20042;-76
2021/10/17 07:04:56;;;;;;;15.90;11.68;;;;;;;6.56;84.18;100341.34;1088166;54;20019;-77
2021/10/17 07:06:01;;;;;;;15.77;10.82;;;;;;;6.63;84.18;100338.28;1088017;54;20042;-76
2021/10/17 07:07:02;;;;;;;14.50;9.95;;;;;;;6.59;84.24;100342.97;1088197;54;20075;-76
2021/10/17 07:08:07;;;;;;;13.02;9.70;;;;;;;6.63;84.04;100339.09;1090188;46;20019;-75
2021/10/17 07:09:09;;;;;;;12.82;9.55;;;;;;;6.68;84.25;100342.28;1088128;54;20034;-77
2021/10/17 07:10:13;;;;;;;12.43;9.23;;;;;;;6.70;84.12;100339.50;1088192;54;20019;-76
2021/10/17 07:11:15;;;;;;;14.07;9.63;;;;;;;6.75;84.07;100341.81;1088019;54;20042;-76
2021/10/17 07:12:19;;;;;;;11.80;9.00;;;;;;;6.78;83.84;100341.63;1089058;39;20713;-76